Time;durP1;ratioP1;P1;durP2;ratioP2;P2;SDS_P1;SDS_P2;PMS_P1;PMS_P2;Temp;Humidity;BMP_temperature;BMP_pressure;BME280_temperature;BME280_humidity;BME280_pressure;Samples;Min_cycle;Max_cycle;Signal;HPM_P1;HPM_P2
2022/07/12 00:00:55;;;;;;;3.47;1.60;;;16.40;99.90;;;;;;4984048;28;20074;-45
2022/07/12 00:03:20;;;;;;;2.55;1.60;;;16.40;99.90;;;;;;4987556;28;20101;-44
2022/07/12 00:05:46;;;;;;;2.75;1.20;;;16.30;99.90;;;;;;4989268;28;20080;-42
2022/07/12 00:08:12;;;;;;;2.50;1.40;;;16.30;99.90;;;;;;4985847;28;20117;-44
2022/07/12 00:10:38;;;;;;;2.53;1.50;;;16.30;99.90;;;;;;4987787;28;20578;-44
2022/07/12 00:13:04;;;;;;;2.38;1.48;;;16.30;99.90;;;;;;4985233;28;20637;-46
2022/07/12 00:15:30;;;;;;;2.03;1.13;;;16.30;99.90;;;;;;4982827;28;20117;-46
2022/07/12 00:17:56;;;;;;;3.47;1.60;;;16.30;99.90;;;;;;4985326;28;20571;-44
2022/07/12 00:20:22;;;;;;;2.95;1.63;;;16.20;99.90;;;;;;4986647;28;20542;-46
2022/07/12 00:22:47;;;;;;;3.45;1.90;;;16.20;99.90;;;;;;4985190;28;20503;-43
2022/07/12 00:25:13;;;;;;;2.72;1.52;;;16.10;99.90;;;;;;4987096;28;20038;-44
2022/07/12 00:27:40;;;;;;;2.83;1.77;;;16.10;99.90;;;;;;4981911;28;20061;-47
2022/07/12 00:30:07;;;;;;;3.63;1.65;;;16.00;99.90;;;;;;4984598;28;20104;-47
2022/07/12 00:32:33;;;;;;;2.45;1.60;;;16.00;99.90;;;;;;4982762;28;20510;-43
2022/07/12 00:34:59;;;;;;;2.67;1.77;;;16.00;99.90;;;;;;4989667;28;20042;-44
2022/07/12 00:37:25;;;;;;;2.83;1.63;;;16.00;99.90;;;;;;4985064;28;20451;-44
2022/07/12 00:39:51;;;;;;;2.33;1.58;;;16.00;99.90;;;;;;4987063;28;20114;-43
2022/07/12 00:42:17;;;;;;;2.65;1.70;;;16.00;99.90;;;;;;4987564;28;20086;-43
2022/07/12 00:44:43;;;;;;;2.60;1.52;;;15.90;99.90;;;;;;4985778;28;20042;-46
2022/07/12 00:47:37;;;;;;;2.35;1.45;;;15.90;99.90;;;;;;5003487;28;20500;-48
2022/07/12 00:50:05;;;;;;;2.67;1.48;;;15.80;99.90;;;;;;4982504;28;20089;-43
2022/07/12 00:52:31;;;;;;;4.63;2.00;;;15.80;99.90;;;;;;4978565;28;20054;-43
2022/07/12 00:54:57;;;;;;;2.35;1.48;;;15.80;99.90;;;;;;4982709;28;20518;-47
2022/07/12 00:57:23;;;;;;;3.03;1.50;;;15.70;99.90;;;;;;4983196;28;20053;-46
2022/07/12 00:59:49;;;;;;;1.80;1.13;;;15.70;99.90;;;;;;4983642;28;20460;-43
2022/07/12 01:02:15;;;;;;;2.30;1.20;;;15.70;99.90;;;;;;4987218;28;20452;-44
2022/07/12 01:04:43;;;;;;;2.72;1.27;;;15.60;99.90;;;;;;4985699;28;20057;-44
2022/07/12 01:07:09;;;;;;;2.58;1.35;;;15.60;99.90;;;;;;4982960;28;20046;-43
2022/07/12 01:09:34;;;;;;;3.92;1.63;;;15.60;99.90;;;;;;4983008;28;20531;-44
2022/07/12 01:12:00;;;;;;;1.92;1.20;;;15.50;99.90;;;;;;4985328;28;20042;-48
2022/07/12 01:14:28;;;;;;;1.73;1.00;;;15.50;99.90;;;;;;4983892;28;20546;-44
2022/07/12 01:16:54;;;;;;;2.55;1.30;;;15.50;99.90;;;;;;4980766;28;20392;-43
2022/07/12 01:19:21;;;;;;;2.17;1.25;;;15.50;99.90;;;;;;4983575;28;20123;-44
2022/07/12 01:21:50;;;;;;;4.07;1.38;;;15.40;99.90;;;;;;4982907;28;20038;-45
2022/07/12 01:24:17;;;;;;;2.38;1.38;;;15.40;99.90;;;;;;4981162;28;20041;-44
2022/07/12 01:26:43;;;;;;;2.08;1.30;;;15.40;99.90;;;;;;4981848;28;20069;-44
2022/07/12 01:29:10;;;;;;;2.05;1.40;;;15.40;99.90;;;;;;4979407;28;20046;-43
2022/07/12 01:31:36;;;;;;;2.65;1.25;;;15.40;99.90;;;;;;4981807;28;20057;-42
2022/07/12 01:34:03;;;;;;;2.58;1.33;;;15.40;99.90;;;;;;4984534;28;20460;-44
2022/07/12 01:36:29;;;;;;;4.40;1.52;;;15.30;99.90;;;;;;4987442;28;20034;-44
2022/07/12 01:38:55;;;;;;;1.95;1.35;;;15.40;99.90;;;;;;4982639;28;20200;-45
2022/07/12 01:41:23;;;;;;;4.18;1.50;;;15.30;99.90;;;;;;4984454;28;21508;-44
2022/07/12 01:43:50;;;;;;;2.08;1.17;;;15.30;99.90;;;;;;4980283;28;20038;-43
2022/07/12 01:46:16;;;;;;;2.92;1.25;;;15.30;99.90;;;;;;4981397;28;20072;-43
2022/07/12 01:48:42;;;;;;;2.20;1.30;;;15.30;99.90;;;;;;4985511;28;20495;-46
2022/07/12 01:51:07;;;;;;;2.85;1.38;;;15.20;99.90;;;;;;4981229;28;20106;-43
2022/07/12 01:53:35;;;;;;;2.78;1.20;;;15.20;99.90;;;;;;4984537;28;20045;-45
2022/07/12 01:56:02;;;;;;;3.17;1.27;;;15.20;99.90;;;;;;4979784;28;20376;-44
2022/07/12 01:58:27;;;;;;;2.35;1.38;;;15.10;99.90;;;;;;4979364;28;20066;-45
2022/07/12 02:00:54;;;;;;;2.30;1.23;;;15.10;99.90;;;;;;4986381;28;20050;-45
2022/07/12 02:03:20;;;;;;;2.75;1.30;;;15.10;99.90;;;;;;4982563;28;20050;-45
2022/07/12 02:05:46;;;;;;;2.40;1.50;;;15.10;99.90;;;;;;4977837;28;20415;-44
2022/07/12 02:08:12;;;;;;;3.53;1.60;;;15.00;99.90;;;;;;4982758;28;20034;-47
2022/07/12 02:10:39;;;;;;;3.45;1.80;;;15.00;99.90;;;;;;4982704;28;20089;-43
2022/07/12 02:13:05;;;;;;;2.80;1.58;;;15.00;99.90;;;;;;4985359;28;20046;-45
2022/07/12 02:15:31;;;;;;;2.53;1.48;;;15.00;99.90;;;;;;4981267;28;20073;-44
2022/07/12 02:17:57;;;;;;;2.80;1.63;;;15.00;99.90;;;;;;4982558;28;20066;-43
2022/07/12 02:20:23;;;;;;;5.80;1.33;;;15.00;99.90;;;;;;4980963;28;20085;-43
2022/07/12 02:22:49;;;;;;;2.38;1.40;;;15.00;99.90;;;;;;4981295;28;20042;-44
2022/07/12 02:25:15;;;;;;;1.98;1.13;;;15.00;99.90;;;;;;4982401;28;20550;-44
2022/07/12 02:27:42;;;;;;;3.05;1.90;;;15.00;99.90;;;;;;4980492;28;20388;-47
2022/07/12 02:30:09;;;;;;;2.05;1.10;;;14.90;99.90;;;;;;4984154;28;20069;-46
2022/07/12 02:32:35;;;;;;;2.40;1.30;;;15.00;99.90;;;;;;4982056;28;20049;-44
2022/07/12 02:35:00;;;;;;;2.05;1.08;;;15.00;99.90;;;;;;4984067;28;20492;-43
2022/07/12 02:37:26;;;;;;;2.25;1.58;;;14.90;99.90;;;;;;4981503;28;20046;-43
2022/07/12 02:40:52;;;;;;;2.80;1.35;;;14.90;99.90;;;;;;4984155;28;20061;-47
2022/07/12 02:42:39;;;;;;;2.30;1.20;;;14.90;99.90;;;;;;4982369;28;20074;-44
2022/07/12 02:45:05;;;;;;;3.10;1.60;;;14.90;99.90;;;;;;4981821;28;20081;-48
2022/07/12 02:47:30;;;;;;;3.25;1.70;;;14.90;99.90;;;;;;4982995;28;20057;-42
2022/07/12 02:49:58;;;;;;;2.50;1.40;;;14.90;99.90;;;;;;4982897;28;20035;-43
2022/07/12 02:52:24;;;;;;;6.30;1.73;;;14.90;99.90;;;;;;4980536;28;20487;-47
2022/07/12 02:54:50;;;;;;;2.53;1.35;;;14.90;99.90;;;;;;4986237;28;20042;-43
2022/07/12 02:57:16;;;;;;;3.00;1.17;;;14.90;99.90;;;;;;4983860;28;20085;-45
2022/07/12 02:59:41;;;;;;;1.92;0.95;;;14.80;99.90;;;;;;4988863;28;20038;-45
2022/07/12 03:02:07;;;;;;;4.28;1.30;;;14.80;99.90;;;;;;4986387;28;20046;-46
2022/07/12 03:04:32;;;;;;;2.55;1.10;;;14.80;99.90;;;;;;4987309;28;20050;-44
2022/07/12 03:06:58;;;;;;;4.97;1.58;;;14.80;99.90;;;;;;4984867;28;20042;-44
2022/07/12 03:09:24;;;;;;;3.83;1.05;;;14.80;99.90;;;;;;4985752;28;20053;-44
2022/07/12 03:11:50;;;;;;;1.80;1.20;;;14.70;99.90;;;;;;4987519;28;20046;-44
2022/07/12 03:14:16;;;;;;;5.28;1.30;;;14.70;99.90;;;;;;4986079;28;20132;-43
2022/07/12 03:16:42;;;;;;;2.88;1.50;;;14.70;99.90;;;;;;4986185;28;20109;-44
2022/07/12 03:19:08;;;;;;;2.30;1.25;;;14.70;99.90;;;;;;4980038;28;20057;-43
2022/07/12 03:21:33;;;;;;;2.80;1.13;;;14.70;99.90;;;;;;4984457;28;20046;-43
2022/07/12 03:23:59;;;;;;;1.85;0.88;;;14.70;99.90;;;;;;4985955;28;20035;-45
2022/07/12 03:26:25;;;;;;;2.40;1.25;;;14.60;99.90;;;;;;4984740;28;20066;-45
2022/07/12 03:28:51;;;;;;;1.75;0.93;;;14.60;99.90;;;;;;4986468;28;20108;-42
2022/07/12 03:31:17;;;;;;;1.75;1.08;;;14.60;99.90;;;;;;4988610;28;20125;-45
2022/07/12 03:33:43;;;;;;;2.08;0.93;;;14.60;99.90;;;;;;4985394;28;20125;-44
2022/07/12 03:36:08;;;;;;;1.88;1.10;;;14.60;99.90;;;;;;4984346;28;20038;-43
2022/07/12 03:38:34;;;;;;;2.22;1.08;;;14.50;99.90;;;;;;4986111;28;20085;-44
2022/07/12 03:41:01;;;;;;;2.45;1.27;;;14.50;99.90;;;;;;4986996;28;20081;-43
2022/07/12 03:43:26;;;;;;;2.58;1.27;;;14.50;99.90;;;;;;4987239;28;20509;-43
2022/07/12 03:45:52;;;;;;;2.15;1.17;;;14.50;99.90;;;;;;4984511;28;20062;-42
2022/07/12 03:48:18;;;;;;;1.92;1.17;;;14.50;99.90;;;;;;4986563;28;20069;-42
2022/07/12 03:50:45;;;;;;;2.92;1.40;;;14.50;99.90;;;;;;4981316;28;20519;-43
2022/07/12 03:53:11;;;;;;;3.75;1.50;;;14.50;99.90;;;;;;4987544;28;20499;-45
2022/07/12 03:55:37;;;;;;;2.40;1.20;;;14.50;99.90;;;;;;4982133;28;20089;-45
2022/07/12 03:58:03;;;;;;;2.60;1.33;;;14.50;99.90;;;;;;4984977;28;20545;-46
2022/07/12 04:00:28;;;;;;;2.28;1.10;;;14.50;99.90;;;;;;4983414;28;20042;-44
2022/07/12 04:02:54;;;;;;;1.85;0.90;;;14.50;99.90;;;;;;4982969;28;20389;-47
2022/07/12 04:05:20;;;;;;;1.83;1.05;;;14.50;99.90;;;;;;4984501;28;20125;-41
2022/07/12 04:07:46;;;;;;;2.30;1.15;;;14.50;99.90;;;;;;4984538;28;20070;-42
2022/07/12 04:10:11;;;;;;;2.60;1.40;;;14.50;99.90;;;;;;4983020;28;20074;-43
2022/07/12 04:12:37;;;;;;;2.17;1.38;;;14.50;99.90;;;;;;4982848;28;20425;-49
2022/07/12 04:15:04;;;;;;;1.98;1.20;;;14.50;99.90;;;;;;4985830;28;20398;-43
2022/07/12 04:17:30;;;;;;;2.25;1.40;;;14.50;99.90;;;;;;4983833;28;20483;-48
2022/07/12 04:19:56;;;;;;;2.08;1.17;;;14.50;99.90;;;;;;4982654;28;20039;-42
2022/07/12 04:22:22;;;;;;;1.90;1.20;;;14.50;99.90;;;;;;4983665;28;20403;-43
2022/07/12 04:24:47;;;;;;;1.80;1.30;;;14.50;99.90;;;;;;4983880;28;20041;-43
2022/07/12 04:27:13;;;;;;;2.05;1.40;;;14.60;99.90;;;;;;4982355;28;20157;-45
2022/07/12 04:29:39;;;;;;;1.67;0.88;;;14.60;99.90;;;;;;4985621;28;20049;-44
2022/07/12 04:32:05;;;;;;;3.83;1.52;;;14.60;99.90;;;;;;4980669;28;20415;-47
2022/07/12 04:34:30;;;;;;;1.95;1.13;;;14.60;99.90;;;;;;4986877;28;20407;-43
2022/07/12 04:36:56;;;;;;;2.67;1.23;;;14.70;99.90;;;;;;4984655;28;20038;-42
2022/07/12 04:39:22;;;;;;;2.03;1.20;;;14.70;99.90;;;;;;4985075;28;20034;-43
2022/07/12 04:41:48;;;;;;;1.83;1.20;;;14.70;99.90;;;;;;4982673;28;20038;-43
2022/07/12 04:44:13;;;;;;;1.70;1.13;;;14.70;99.90;;;;;;4985672;28;20041;-44
2022/07/12 04:46:39;;;;;;;2.53;1.10;;;14.80;99.90;;;;;;4985123;28;20046;-43
2022/07/12 04:49:06;;;;;;;2.85;1.40;;;14.80;99.90;;;;;;4986684;28;20070;-45
2022/07/12 04:51:32;;;;;;;2.50;1.40;;;14.90;99.90;;;;;;4982638;28;20197;-47
2022/07/12 04:53:57;;;;;;;2.85;1.30;;;15.00;99.90;;;;;;4980056;28;20521;-42
2022/07/12 04:56:23;;;;;;;2.03;1.20;;;15.10;99.90;;;;;;4980415;28;20065;-43
2022/07/12 04:58:49;;;;;;;3.05;1.77;;;15.10;99.90;;;;;;4982965;28;20114;-43
2022/07/12 05:01:15;;;;;;;2.47;1.30;;;15.20;99.90;;;;;;4985759;28;20038;-45
2022/07/12 05:03:41;;;;;;;3.92;2.10;;;15.30;99.90;;;;;;4982804;28;20133;-44
2022/07/12 05:06:07;;;;;;;3.05;1.85;;;15.30;99.90;;;;;;4980900;28;20539;-43
2022/07/12 05:08:32;;;;;;;4.85;2.40;;;15.40;99.90;;;;;;4986861;28;20034;-45
2022/07/12 05:10:58;;;;;;;3.17;2.13;;;15.40;99.90;;;;;;4983001;28;20036;-44
2022/07/12 05:13:23;;;;;;;3.38;2.20;;;15.60;99.90;;;;;;4981189;28;20045;-46
2022/07/12 05:15:49;;;;;;;3.17;2.17;;;15.70;99.90;;;;;;4985231;28;20082;-44
2022/07/12 05:18:15;;;;;;;2.83;1.77;;;15.70;99.90;;;;;;4981476;28;20043;-48
2022/07/12 05:20:41;;;;;;;3.10;2.20;;;15.80;99.90;;;;;;4981266;28;20478;-43
2022/07/12 05:23:07;;;;;;;3.75;2.15;;;15.90;99.90;;;;;;4984199;28;20050;-53
2022/07/12 05:25:32;;;;;;;3.00;1.90;;;16.00;99.90;;;;;;4979764;28;20097;-42
2022/07/12 05:27:59;;;;;;;2.50;1.50;;;16.10;99.90;;;;;;4981928;28;20051;-46
2022/07/12 05:30:25;;;;;;;2.75;2.05;;;16.20;99.90;;;;;;4983379;28;20133;-47
2022/07/12 05:32:51;;;;;;;2.88;1.60;;;16.30;99.90;;;;;;4981324;28;20112;-46
2022/07/12 05:35:17;;;;;;;3.10;1.83;;;16.30;99.90;;;;;;4984054;28;20100;-47
2022/07/12 05:37:43;;;;;;;3.00;1.90;;;16.40;99.90;;;;;;4984706;28;20042;-49
2022/07/12 05:40:09;;;;;;;3.40;1.90;;;16.40;99.90;;;;;;4984791;28;20030;-49
2022/07/12 05:42:35;;;;;;;3.25;1.80;;;16.40;99.90;;;;;;4983438;28;20597;-47
2022/07/12 05:45:01;;;;;;;41.05;4.07;;;16.40;99.90;;;;;;4983199;28;20070;-42
2022/07/12 05:47:26;;;;;;;3.50;2.20;;;16.40;99.90;;;;;;4979930;28;20160;-44
2022/07/12 05:49:52;;;;;;;3.92;2.42;;;16.50;99.90;;;;;;4980028;28;20476;-42
2022/07/12 05:55:02;;;;;;;9.93;2.20;;;16.50;99.90;;;;;;4980521;28;20555;-43
2022/07/12 05:57:28;;;;;;;5.15;2.50;;;16.60;99.90;;;;;;4988610;28;20117;-42
2022/07/12 05:59:53;;;;;;;4.55;2.33;;;16.70;99.90;;;;;;4983160;28;20037;-43
2022/07/12 06:02:19;;;;;;;4.30;2.65;;;16.70;99.90;;;;;;4979846;28;20035;-44
2022/07/12 06:04:45;;;;;;;3.67;2.17;;;16.70;99.90;;;;;;4981654;28;20054;-43
2022/07/12 06:07:10;;;;;;;3.42;2.38;;;16.70;99.90;;;;;;4981324;28;20066;-45
2022/07/12 06:09:36;;;;;;;6.20;2.45;;;16.90;99.90;;;;;;4982664;28;20041;-43
2022/07/12 06:12:02;;;;;;;2.83;2.17;;;16.90;99.90;;;;;;4979738;28;20041;-41
2022/07/12 06:14:28;;;;;;;6.18;2.63;;;16.90;99.90;;;;;;4984627;28;20453;-41
2022/07/12 06:16:53;;;;;;;3.58;2.40;;;17.00;99.90;;;;;;4982841;28;20038;-40
2022/07/12 06:19:19;;;;;;;3.53;2.40;;;17.10;99.90;;;;;;4982981;28;20035;-41
2022/07/12 06:21:45;;;;;;;5.40;2.58;;;17.20;99.90;;;;;;4983722;28;20048;-41
2022/07/12 06:24:10;;;;;;;4.05;2.90;;;17.30;99.90;;;;;;4983191;28;20113;-43
2022/07/12 06:26:36;;;;;;;3.88;2.15;;;17.30;99.90;;;;;;4983453;28;20144;-46
2022/07/12 06:29:02;;;;;;;3.00;2.25;;;17.30;99.90;;;;;;4982755;28;20035;-41
2022/07/12 06:31:28;;;;;;;3.92;3.05;;;17.30;99.90;;;;;;4982272;28;20046;-42
2022/07/12 06:33:53;;;;;;;3.92;2.90;;;17.40;99.90;;;;;;4981673;28;20376;-42
2022/07/12 06:36:19;;;;;;;3.70;2.72;;;17.50;99.90;;;;;;4986646;28;20065;-43
2022/07/12 06:38:45;;;;;;;6.15;2.70;;;17.60;99.90;;;;;;4983935;28;20042;-43
2022/07/12 06:41:10;;;;;;;3.63;2.47;;;17.70;99.90;;;;;;4984052;28;20511;-42
2022/07/12 06:43:36;;;;;;;3.13;2.17;;;17.80;99.90;;;;;;4985863;28;20503;-42
2022/07/12 06:46:02;;;;;;;4.28;2.30;;;17.90;99.90;;;;;;4987634;28;20743;-42
2022/07/12 06:48:27;;;;;;;3.25;2.22;;;18.10;99.90;;;;;;4979920;28;20511;-41
2022/07/12 06:50:53;;;;;;;4.82;2.80;;;18.30;99.90;;;;;;4982494;28;20035;-42
2022/07/12 06:53:20;;;;;;;3.03;2.08;;;18.40;99.90;;;;;;4980597;28;20038;-42
2022/07/12 06:55:46;;;;;;;3.42;2.50;;;18.40;99.90;;;;;;4981619;28;20049;-41
2022/07/12 06:58:12;;;;;;;4.43;3.20;;;18.50;99.90;;;;;;4986329;28;20050;-41
2022/07/12 07:00:38;;;;;;;3.13;2.13;;;18.50;99.90;;;;;;4981369;28;20039;-42
2022/07/12 07:03:07;;;;;;;6.55;2.95;;;18.60;99.90;;;;;;4985904;28;20042;-41
2022/07/12 07:05:32;;;;;;;3.75;2.53;;;18.80;99.90;;;;;;4982595;28;20059;-42
2022/07/12 07:07:58;;;;;;;3.08;2.53;;;18.80;99.90;;;;;;4985913;28;20047;-41
2022/07/12 07:10:24;;;;;;;5.22;3.25;;;18.90;99.90;;;;;;4983646;28;20151;-40
2022/07/12 07:12:49;;;;;;;4.57;3.08;;;19.00;99.90;;;;;;4986449;28;20488;-44
2022/07/12 07:15:16;;;;;;;4.15;3.00;;;19.10;99.90;;;;;;4978762;28;20130;-40
2022/07/12 07:17:42;;;;;;;3.78;2.92;;;19.10;99.90;;;;;;4979807;28;20495;-41
2022/07/12 07:20:12;;;;;;;5.18;2.83;;;19.10;99.90;;;;;;4981886;28;20126;-40
2022/07/12 07:22:38;;;;;;;3.28;2.75;;;19.20;99.90;;;;;;4979587;28;20062;-41
2022/07/12 07:25:04;;;;;;;2.92;2.63;;;19.30;99.90;;;;;;4980153;28;20058;-42
2022/07/12 07:27:30;;;;;;;4.78;3.65;;;19.40;99.90;;;;;;4984674;28;20040;-40
2022/07/12 07:32:40;;;;;;;4.53;2.70;;;19.60;99.90;;;;;;4983330;28;20078;-40
2022/07/12 07:35:06;;;;;;;2.88;2.08;;;19.80;99.90;;;;;;4983054;28;20089;-40
2022/07/12 07:37:33;;;;;;;3.35;2.25;;;19.90;99.90;;;;;;4985846;28;20043;-41
2022/07/12 07:39:58;;;;;;;3.78;3.15;;;20.00;99.90;;;;;;4983317;28;20027;-40
2022/07/12 07:42:25;;;;;;;4.05;2.92;;;20.30;99.90;;;;;;4987390;28;20497;-45
2022/07/12 07:44:50;;;;;;;3.65;2.80;;;20.40;99.90;;;;;;4988201;28;20045;-42
2022/07/12 07:47:16;;;;;;;3.42;2.70;;;20.50;99.90;;;;;;4987924;28;20364;-40
2022/07/12 07:49:42;;;;;;;3.40;2.65;;;20.60;99.90;;;;;;4988418;28;20470;-41
2022/07/12 07:52:07;;;;;;;4.10;2.70;;;20.80;99.90;;;;;;4989108;28;20503;-41
2022/07/12 07:54:33;;;;;;;3.92;2.78;;;20.90;99.90;;;;;;4985896;28;20547;-41
2022/07/12 07:56:59;;;;;;;3.33;2.08;;;21.00;99.90;;;;;;4989548;28;20619;-41
2022/07/12 07:59:24;;;;;;;3.00;2.70;;;21.10;99.90;;;;;;4990553;28;20034;-41
2022/07/12 08:01:53;;;;;;;4.47;2.50;;;21.20;99.90;;;;;;4986638;28;20427;-40
2022/07/12 08:04:20;;;;;;;6.45;2.60;;;21.20;99.90;;;;;;4987553;28;20061;-41
2022/07/12 08:06:48;;;;;;;3.65;2.63;;;21.30;99.90;;;;;;4987657;28;20149;-41
2022/07/12 08:09:14;;;;;;;3.30;2.42;;;21.30;99.90;;;;;;4990279;28;20503;-43
2022/07/12 08:11:40;;;;;;;16.20;3.17;;;21.30;99.90;;;;;;4986215;28;20069;-42
2022/07/12 08:14:07;;;;;;;6.07;2.65;;;21.40;99.90;;;;;;4985089;28;20070;-40
2022/07/12 08:16:33;;;;;;;4.35;2.30;;;21.50;99.90;;;;;;4985723;28;20092;-40
2022/07/12 08:18:59;;;;;;;17.17;3.22;;;21.50;99.90;;;;;;4985164;28;20045;-41
2022/07/12 08:21:25;;;;;;;3.53;2.65;;;21.50;99.90;;;;;;4985480;28;20439;-42
2022/07/12 08:23:51;;;;;;;3.75;2.67;;;21.60;99.90;;;;;;4984753;28;20659;-40
2022/07/12 08:26:17;;;;;;;4.20;2.30;;;21.50;99.90;;;;;;4985184;28;20034;-44
2022/07/12 08:28:43;;;;;;;6.32;2.35;;;21.50;99.90;;;;;;4986240;28;20042;-40
2022/07/12 08:31:09;;;;;;;5.13;2.58;;;21.40;99.90;;;;;;4985252;28;20026;-41
2022/07/12 08:33:35;;;;;;;3.42;2.25;;;21.40;99.90;;;;;;4987853;28;20506;-40
2022/07/12 08:36:00;;;;;;;4.13;2.35;;;21.30;99.90;;;;;;4988231;28;20038;-41
2022/07/12 08:38:27;;;;;;;3.88;2.55;;;21.30;99.90;;;;;;4984263;28;20411;-42
2022/07/12 08:40:52;;;;;;;3.78;2.22;;;21.30;99.90;;;;;;4989480;28;20038;-39
2022/07/12 08:43:18;;;;;;;4.45;2.70;;;21.30;99.90;;;;;;4986091;28;20039;-41
2022/07/12 08:45:44;;;;;;;3.28;2.33;;;21.30;99.90;;;;;;4981346;28;20035;-41
2022/07/12 08:48:09;;;;;;;9.65;3.15;;;21.40;99.90;;;;;;4989050;28;20120;-40
2022/07/12 08:50:35;;;;;;;4.25;2.75;;;21.50;99.90;;;;;;4989848;28;20049;-40
2022/07/12 08:53:01;;;;;;;5.00;3.22;;;21.70;99.90;;;;;;4987114;28;20107;-42
2022/07/12 08:55:29;;;;;;;3.10;2.70;;;21.80;99.90;;;;;;4988245;28;20463;-41
2022/07/12 08:57:57;;;;;;;4.03;2.50;;;21.90;99.90;;;;;;4982951;28;20396;-40
2022/07/12 09:00:24;;;;;;;4.40;2.80;;;21.90;99.90;;;;;;4987217;28;20108;-41
2022/07/12 09:02:58;;;;;;;3.75;2.67;;;22.10;99.90;;;;;;4983816;28;20038;-40
2022/07/12 09:05:26;;;;;;;3.40;2.58;;;22.20;99.90;;;;;;4987265;28;20460;-40
2022/07/12 09:08:02;;;;;;;5.55;2.78;;;22.30;99.90;;;;;;4986786;28;20046;-40
2022/07/12 09:10:27;;;;;;;4.50;2.70;;;22.50;99.90;;;;;;4986036;28;20046;-40
2022/07/12 09:12:53;;;;;;;3.33;2.50;;;22.60;99.90;;;;;;4986775;28;20411;-41
2022/07/12 09:15:21;;;;;;;5.68;2.70;;;22.70;99.90;;;;;;4988962;28;20403;-42
2022/07/12 09:17:55;;;;;;;3.97;2.22;;;22.90;99.90;;;;;;4986571;28;20049;-40
2022/07/12 09:20:21;;;;;;;3.20;2.42;;;23.00;99.90;;;;;;4985983;28;20136;-42
2022/07/12 09:22:58;;;;;;;3.63;2.22;;;23.10;99.90;;;;;;4988735;28;20073;-40
2022/07/12 09:25:24;;;;;;;4.18;2.13;;;23.20;98.90;;;;;;4987989;28;20049;-40
2022/07/12 09:28:03;;;;;;;3.83;2.30;;;23.20;98.40;;;;;;4982222;28;20046;-40
2022/07/12 09:30:31;;;;;;;3.15;2.38;;;23.30;97.00;;;;;;4989532;28;20479;-40
2022/07/12 09:36:10;;;;;;;2.00;1.50;;;23.40;97.70;;;;;;4983208;28;20038;-41
2022/07/12 09:38:36;;;;;;;4.00;2.08;;;23.40;95.70;;;;;;4986053;28;20484;-41
2022/07/12 09:41:03;;;;;;;2.92;1.48;;;23.50;95.80;;;;;;4985407;28;20065;-40
2022/07/12 09:43:29;;;;;;;3.95;1.00;;;23.50;94.60;;;;;;4970996;28;20042;-40
2022/07/12 09:45:55;;;;;;;6.78;1.60;;;23.60;93.70;;;;;;4985558;28;20411;-40
2022/07/12 09:48:22;;;;;;;4.63;1.52;;;23.70;93.00;;;;;;4988159;28;20564;-40
2022/07/12 09:50:50;;;;;;;4.65;1.77;;;23.70;92.70;;;;;;4986187;28;20078;-43
2022/07/12 09:53:26;;;;;;;1.77;1.10;;;23.80;92.10;;;;;;4983960;28;20038;-40
2022/07/12 09:55:52;;;;;;;4.13;2.03;;;23.80;91.10;;;;;;4982583;28;20045;-41
2022/07/12 09:58:23;;;;;;;9.20;1.60;;;23.80;91.20;;;;;;4981708;28;20396;-40
2022/07/12 10:00:52;;;;;;;3.28;1.30;;;23.90;91.50;;;;;;4985532;28;20462;-42
2022/07/12 10:03:21;;;;;;;2.53;1.77;;;23.90;91.10;;;;;;4985767;28;20116;-55
2022/07/12 10:05:48;;;;;;;1.60;1.20;;;24.00;90.60;;;;;;4980483;28;20046;-44
2022/07/12 10:08:14;;;;;;;2.20;1.45;;;24.00;90.10;;;;;;4985847;28;20054;-41
2022/07/12 10:10:40;;;;;;;2.65;1.30;;;24.00;88.70;;;;;;4988274;28;20381;-44
2022/07/12 10:13:06;;;;;;;3.03;1.70;;;24.10;89.80;;;;;;4986713;28;20096;-39
2022/07/12 10:15:33;;;;;;;6.20;1.25;;;24.20;88.40;;;;;;4984950;28;20058;-42
2022/07/12 10:18:00;;;;;;;3.10;1.33;;;24.40;88.20;;;;;;4981465;28;20125;-41
2022/07/12 10:20:27;;;;;;;2.00;1.52;;;24.50;87.50;;;;;;4981027;28;20034;-40
2022/07/12 10:23:16;;;;;;;2.35;1.15;;;24.70;86.80;;;;;;4979375;28;20073;-45
2022/07/12 10:25:42;;;;;;;1.65;1.00;;;24.90;86.90;;;;;;4975561;28;20137;-43
2022/07/12 10:28:07;;;;;;;1.98;1.20;;;25.00;86.70;;;;;;4986206;28;20133;-53
2022/07/12 10:30:48;;;;;;;2.13;1.70;;;24.90;86.10;;;;;;4982298;28;20047;-41
2022/07/12 10:33:21;;;;;;;1.88;1.20;;;24.80;83.70;;;;;;4978582;28;20081;-42
2022/07/12 10:35:58;;;;;;;5.22;1.40;;;24.70;84.50;;;;;;4980659;28;20031;-42
2022/07/12 10:38:23;;;;;;;3.63;1.00;;;24.70;84.60;;;;;;4982861;28;20169;-41
2022/07/12 10:40:50;;;;;;;21.83;2.10;;;24.80;85.80;;;;;;4982345;28;20133;-43
2022/07/12 10:43:19;;;;;;;5.80;1.05;;;24.80;86.00;;;;;;4981401;28;20038;-42
2022/07/12 10:45:47;;;;;;;1.20;0.80;;;24.90;85.30;;;;;;4983061;28;20050;-43
2022/07/12 10:48:12;;;;;;;1.90;1.50;;;25.10;83.50;;;;;;4986687;28;20492;-42
2022/07/12 10:50:41;;;;;;;4.07;1.20;;;25.30;83.10;;;;;;4982089;28;20042;-43
2022/07/12 10:53:19;;;;;;;2.95;1.20;;;25.30;83.10;;;;;;4982036;28;20042;-43
2022/07/12 10:56:03;;;;;;;5.55;1.90;;;25.30;82.10;;;;;;4983257;28;20043;-41
2022/07/12 10:58:43;;;;;;;2.78;1.52;;;25.30;80.80;;;;;;4980690;28;20515;-43
2022/07/12 11:01:30;;;;;;;3.97;1.80;;;25.30;81.40;;;;;;4983187;28;20519;-42
2022/07/12 11:04:07;;;;;;;1.65;0.93;;;25.30;82.70;;;;;;4978111;28;20384;-42
2022/07/12 11:06:38;;;;;;;1.42;1.10;;;25.20;82.00;;;;;;4983266;28;20050;-43
2022/07/12 11:09:07;;;;;;;1.53;1.00;;;25.30;82.80;;;;;;4985358;28;20081;-44
2022/07/12 11:11:45;;;;;;;1.38;0.93;;;25.40;84.00;;;;;;4987042;28;20090;-39
2022/07/12 11:14:12;;;;;;;2.45;1.95;;;25.60;83.30;;;;;;4985163;28;20074;-40
2022/07/12 11:16:46;;;;;;;4.75;1.40;;;25.80;81.40;;;;;;4985182;28;20046;-42
2022/07/12 11:19:11;;;;;;;3.60;1.52;;;26.00;81.00;;;;;;4989886;28;20399;-41
2022/07/12 11:21:37;;;;;;;2.60;1.80;;;26.00;80.20;;;;;;4983004;28;20050;-43
2022/07/12 11:24:18;;;;;;;2.15;1.65;;;26.10;79.20;;;;;;4986750;28;20084;-46
2022/07/12 11:26:44;;;;;;;5.30;1.40;;;26.10;77.70;;;;;;4986018;28;20100;-44
2022/07/12 11:29:11;;;;;;;2.25;1.48;;;26.20;78.60;;;;;;4986039;28;20042;-43
2022/07/12 11:31:37;;;;;;;1.35;1.15;;;26.30;78.30;;;;;;4986940;28;20041;-48
2022/07/12 11:34:03;;;;;;;2.53;1.73;;;26.50;78.60;;;;;;4986105;28;20403;-43
2022/07/12 11:36:30;;;;;;;2.10;1.45;;;26.40;75.90;;;;;;4985290;28;20026;-44
2022/07/12 11:38:56;;;;;;;1.90;0.95;;;26.30;76.80;;;;;;4989510;28;20046;-43
2022/07/12 11:41:23;;;;;;;2.83;1.50;;;26.50;75.40;;;;;;4985798;28;20108;-45
2022/07/12 11:43:49;;;;;;;2.65;1.15;;;26.60;73.50;;;;;;4988613;28;20128;-42
2022/07/12 11:46:15;;;;;;;7.70;0.75;;;26.70;73.20;;;;;;4986756;28;20038;-42
2022/07/12 11:48:42;;;;;;;3.95;1.00;;;26.80;74.90;;;;;;4983535;28;20121;-44
2022/07/12 11:51:12;;;;;;;3.20;0.90;;;26.90;73.00;;;;;;4986040;28;20034;-45
2022/07/12 11:53:39;;;;;;;3.38;1.00;;;26.90;70.90;;;;;;4987402;28;20046;-48
2022/07/12 11:56:06;;;;;;;3.78;0.80;;;26.90;70.40;;;;;;4974438;28;20125;-43
2022/07/12 11:58:34;;;;;;;1.10;0.90;;;26.90;72.40;;;;;;4990925;28;20042;-45
2022/07/12 12:01:00;;;;;;;2.20;0.90;;;27.00;70.60;;;;;;4988682;28;20042;-43
2022/07/12 12:03:26;;;;;;;2.25;1.13;;;27.00;69.60;;;;;;4985352;28;20084;-42
2022/07/12 12:05:54;;;;;;;2.03;0.90;;;27.10;70.00;;;;;;4988487;28;20050;-42
2022/07/12 12:08:20;;;;;;;1.20;0.77;;;27.20;68.70;;;;;;4988040;28;20038;-44
2022/07/12 12:10:57;;;;;;;1.20;0.70;;;27.20;68.00;;;;;;4987665;28;20050;-41
2022/07/12 12:13:24;;;;;;;1.85;0.70;;;27.30;64.20;;;;;;4981986;28;20045;-42
2022/07/12 12:15:55;;;;;;;1.27;0.70;;;27.30;66.90;;;;;;4981185;28;20096;-42
2022/07/12 12:18:38;;;;;;;2.38;0.60;;;27.40;65.00;;;;;;5006621;28;20070;-44
2022/07/12 12:21:13;;;;;;;1.75;0.57;;;27.60;65.30;;;;;;4986460;28;20076;-42
2022/07/12 12:23:41;;;;;;;1.65;0.57;;;27.80;64.60;;;;;;4986880;28;20049;-43
2022/07/12 12:26:15;;;;;;;0.80;0.60;;;27.90;63.00;;;;;;4987406;28;20070;-43
2022/07/12 12:28:53;;;;;;;0.70;0.40;;;27.80;60.00;;;;;;4986948;28;20177;-42
2022/07/12 12:31:21;;;;;;;5.07;0.60;;;27.90;58.90;;;;;;4989517;28;20092;-42
2022/07/12 12:33:58;;;;;;;5.25;0.50;;;27.80;57.80;;;;;;4985173;28;20054;-42
2022/07/12 12:36:26;;;;;;;0.43;0.40;;;27.80;57.40;;;;;;4988008;28;20061;-44
2022/07/12 12:38:54;;;;;;;0.50;0.40;;;27.80;56.00;;;;;;4986832;28;20383;-41
2022/07/12 12:41:24;;;;;;;1.20;0.40;;;27.90;54.10;;;;;;4990587;28;20034;-42
2022/07/12 12:44:03;;;;;;;0.80;0.30;;;28.00;56.20;;;;;;4985045;28;20104;-43
2022/07/12 12:49:50;;;;;;;1.35;0.45;;;28.40;51.30;;;;;;4986526;28;20038;-42
2022/07/12 12:52:16;;;;;;;0.57;0.35;;;28.60;52.60;;;;;;4983280;28;20622;-43
2022/07/12 12:54:42;;;;;;;0.32;0.30;;;28.60;53.80;;;;;;4981983;28;20500;-40
2022/07/12 12:57:08;;;;;;;1.50;0.30;;;28.70;53.20;;;;;;4983131;28;20169;-40